< Cyclone 198707 1988 Season Cyclone 198802 >
Cyclone 198801 (AGI)
General InformationTrack Information on Google MapsList of All Images || ResourceGoogle EarthGE AnimationAtom FeedGeoJSON
Detalied Best Track (Time Zone = UTC)
Year Month Day Hour Lat. Long. Pressure (hPa) Wind (kt) Class Image Chart
1988 1 8 00 -14.9 157.0 1001 0 0 Image --
1988 1 8 06 -14.9 156.8 1001 0 0 Image --
1988 1 8 12 -14.9 156.5 1001 0 0 Image --
1988 1 8 18 -14.7 155.6 1001 0 0 Image --
1988 1 9 00 -13.7 155.0 1002 0 0 Image --
1988 1 9 06 -13.2 155.0 1000 0 0 Image --
1988 1 9 12 -12.9 155.0 1000 0 0 Image --
1988 1 9 18 -12.7 154.9 1000 0 0 Image --
1988 1 10 00 -12.4 154.7 1000 0 0 Image --
1988 1 10 06 -11.9 154.5 999 0 0 Image --
1988 1 10 12 -10.8 154.0 996 0 0 Image --
1988 1 10 18 -10.6 154.2 994 0 0 Image --
1988 1 11 00 -10.5 154.0 994 0 0 Image --
1988 1 11 06 -10.5 153.8 994 0 0 Image --
1988 1 11 12 -10.5 153.6 993 0 0 Image --
1988 1 11 18 -10.6 153.4 990 0 0 Image --
1988 1 12 00 -10.8 153.6 988 0 0 Image --
1988 1 12 06 -11.2 153.7 986 0 0 Image --
1988 1 12 12 -11.5 153.6 982 0 0 Image --
1988 1 12 18 -12.2 154.3 980 0 0 Image --
1988 1 13 00 -13.3 155.0 980 0 0 Image --
1988 1 13 06 -14.6 155.5 980 0 0 Image --
1988 1 13 12 -15.7 156.4 980 0 0 Image --
1988 1 13 18 -16.8 157.7 982 0 0 Image --
1988 1 14 00 -18.6 159.4 993 0 0 Image --
1988 1 14 06 -19.4 162.0 995 0 0 Image --
< Cyclone 198707 1988 Season Cyclone 198802 >

Help